sensor_id;sensor_type;location;lat;lon;timestamp;pressure;altitude;pressure_sealevel;temperature;humidity
27202;BME280;14717;46.924;15.474;2023-02-14T00:00:10;99766.69;;;-1.20;94.50
27202;BME280;14717;46.924;15.474;2023-02-14T00:02:36;99766.38;;;-1.32;94.14
27202;BME280;14717;46.924;15.474;2023-02-14T00:05:01;99771.44;;;-1.22;94.07
27202;BME280;14717;46.924;15.474;2023-02-14T00:07:27;99764.88;;;-1.43;94.25
27202;BME280;14717;46.924;15.474;2023-02-14T00:09:52;99767.69;;;-1.28;95.10
27202;BME280;14717;46.924;15.474;2023-02-14T00:12:17;99771.78;;;-1.25;94.58
27202;BME280;14717;46.924;15.474;2023-02-14T00:14:43;99767.38;;;-1.26;94.04
27202;BME280;14717;46.924;15.474;2023-02-14T00:17:26;99777.22;;;-1.32;94.74
27202;BME280;14717;46.924;15.474;2023-02-14T00:19:52;99778.59;;;-1.52;94.85
27202;BME280;14717;46.924;15.474;2023-02-14T00:22:17;99787.03;;;-1.39;94.59
27202;BME280;14717;46.924;15.474;2023-02-14T00:24:43;99782.63;;;-1.32;94.94
27202;BME280;14717;46.924;15.474;2023-02-14T00:27:08;99770.41;;;-1.36;93.88
27202;BME280;14717;46.924;15.474;2023-02-14T00:29:33;99772.78;;;-1.26;93.20
27202;BME280;14717;46.924;15.474;2023-02-14T00:31:59;99773.31;;;-1.38;94.50
27202;BME280;14717;46.924;15.474;2023-02-14T00:34:25;99766.03;;;-1.37;92.96
27202;BME280;14717;46.924;15.474;2023-02-14T00:36:51;99770.47;;;-1.52;93.84
27202;BME280;14717;46.924;15.474;2023-02-14T00:39:17;99765.38;;;-1.47;93.62
27202;BME280;14717;46.924;15.474;2023-02-14T00:41:43;99765.72;;;-1.42;93.57
27202;BME280;14717;46.924;15.474;2023-02-14T00:44:09;99766.38;;;-1.32;93.80
27202;BME280;14717;46.924;15.474;2023-02-14T00:46:36;99747.03;;;-1.22;92.65
27202;BME280;14717;46.924;15.474;2023-02-14T00:49:01;99774.31;;;-1.31;93.32
27202;BME280;14717;46.924;15.474;2023-02-14T00:51:27;99771.94;;;-1.26;93.06
27202;BME280;14717;46.924;15.474;2023-02-14T00:53:52;99772.94;;;-1.19;92.09
27202;BME280;14717;46.924;15.474;2023-02-14T00:56:18;99774.66;;;-1.18;91.94
27202;BME280;14717;46.924;15.474;2023-02-14T00:58:44;99779.91;;;-1.40;91.06
27202;BME280;14717;46.924;15.474;2023-02-14T01:01:10;99783.66;;;-1.57;92.97
27202;BME280;14717;46.924;15.474;2023-02-14T01:03:36;99768.91;;;-1.47;92.99
27202;BME280;14717;46.924;15.474;2023-02-14T01:06:02;99767.25;;;-1.56;91.73
27202;BME280;14717;46.924;15.474;2023-02-14T01:08:27;99774.16;;;-1.53;92.27
27202;BME280;14717;46.924;15.474;2023-02-14T01:10:53;99776.56;;;-1.82;92.70
27202;BME280;14717;46.924;15.474;2023-02-14T01:13:18;99775.53;;;-1.81;93.69
27202;BME280;14717;46.924;15.474;2023-02-14T01:15:47;99778.44;;;-1.82;93.40
27202;BME280;14717;46.924;15.474;2023-02-14T01:18:14;99777.25;;;-1.64;93.29
27202;BME280;14717;46.924;15.474;2023-02-14T01:20:40;99770.28;;;-1.74;94.14
27202;BME280;14717;46.924;15.474;2023-02-14T01:23:05;99766.25;;;-1.70;93.26
27202;BME280;14717;46.924;15.474;2023-02-14T01:25:31;99779.25;;;-1.82;94.26
27202;BME280;14717;46.924;15.474;2023-02-14T01:27:56;99779.25;;;-1.82;93.99
27202;BME280;14717;46.924;15.474;2023-02-14T01:30:22;99772.66;;;-1.79;94.38
27202;BME280;14717;46.924;15.474;2023-02-14T01:32:48;99780.94;;;-1.73;93.42
27202;BME280;14717;46.924;15.474;2023-02-14T01:35:14;99785.88;;;-1.69;93.79
27202;BME280;14717;46.924;15.474;2023-02-14T01:37:39;99775.34;;;-1.79;92.73
27202;BME280;14717;46.924;15.474;2023-02-14T01:40:06;99771.63;;;-1.94;94.47
27202;BME280;14717;46.924;15.474;2023-02-14T01:42:33;99781.44;;;-2.09;94.95
27202;BME280;14717;46.924;15.474;2023-02-14T01:45:00;99773.47;;;-2.03;94.24
27202;BME280;14717;46.924;15.474;2023-02-14T01:47:27;99770.47;;;-1.92;94.29
27202;BME280;14717;46.924;15.474;2023-02-14T01:49:58;99762.00;;;-1.81;93.72
27202;BME280;14717;46.924;15.474;2023-02-14T01:52:28;99759.63;;;-1.76;92.92
27202;BME280;14717;46.924;15.474;2023-02-14T01:55:00;99757.63;;;-1.74;93.38
27202;BME280;14717;46.924;15.474;2023-02-14T01:57:32;99754.91;;;-1.74;92.12
27202;BME280;14717;46.924;15.474;2023-02-14T02:00:01;99760.63;;;-1.93;90.73
27202;BME280;14717;46.924;15.474;2023-02-14T02:02:45;99760.47;;;-1.99;91.34
27202;BME280;14717;46.924;15.474;2023-02-14T02:05:12;99752.34;;;-1.91;92.88
27202;BME280;14717;46.924;15.474;2023-02-14T02:07:39;99760.28;;;-1.98;91.61
27202;BME280;14717;46.924;15.474;2023-02-14T02:10:06;99757.22;;;-2.11;92.30
27202;BME280;14717;46.924;15.474;2023-02-14T02:12:33;99755.91;;;-1.99;92.85
27202;BME280;14717;46.924;15.474;2023-02-14T02:15:01;99756.22;;;-1.86;92.15
27202;BME280;14717;46.924;15.474;2023-02-14T02:40:55;99760.78;;;-2.26;91.24
27202;BME280;14717;46.924;15.474;2023-02-14T02:46:01;99760.78;;;-2.26;92.93
27202;BME280;14717;46.924;15.474;2023-02-14T02:49:00;99756.72;;;-2.14;91.77
27202;BME280;14717;46.924;15.474;2023-02-14T02:51:40;99761.66;;;-2.10;91.57
27202;BME280;14717;46.924;15.474;2023-02-14T02:54:33;99759.59;;;-2.08;90.85
27202;BME280;14717;46.924;15.474;2023-02-14T02:57:02;99766.41;;;-2.04;90.62
27202;BME280;14717;46.924;15.474;2023-02-14T02:59:32;99756.56;;;-2.05;90.28
27202;BME280;14717;46.924;15.474;2023-02-14T03:04:32;99754.47;;;-2.42;94.01
27202;BME280;14717;46.924;15.474;2023-02-14T03:07:17;99757.69;;;-2.54;93.71
27202;BME280;14717;46.924;15.474;2023-02-14T03:10:22;99753.03;;;-2.70;95.14
27202;BME280;14717;46.924;15.474;2023-02-14T03:18:15;99755.78;;;-2.62;95.19
27202;BME280;14717;46.924;15.474;2023-02-14T03:20:55;99769.13;;;-2.60;94.69
27202;BME280;14717;46.924;15.474;2023-02-14T03:23:30;99758.84;;;-2.57;94.50
27202;BME280;14717;46.924;15.474;2023-02-14T03:34:22;99760.13;;;-2.77;94.19
27202;BME280;14717;46.924;15.474;2023-02-14T03:37:00;99764.38;;;-2.74;95.63
27202;BME280;14717;46.924;15.474;2023-02-14T03:39:37;99761.31;;;-2.71;96.41
27202;BME280;14717;46.924;15.474;2023-02-14T03:42:17;99757.59;;;-2.70;96.37
27202;BME280;14717;46.924;15.474;2023-02-14T03:44:44;99759.47;;;-2.63;96.06
27202;BME280;14717;46.924;15.474;2023-02-14T03:47:15;99763.84;;;-2.70;95.79
27202;BME280;14717;46.924;15.474;2023-02-14T03:49:49;99760.16;;;-2.69;94.81
27202;BME280;14717;46.924;15.474;2023-02-14T03:52:16;99752.72;;;-2.67;95.24
27202;BME280;14717;46.924;15.474;2023-02-14T03:54:44;99758.56;;;-2.87;95.46
27202;BME280;14717;46.924;15.474;2023-02-14T03:57:24;99763.47;;;-2.83;95.34
27202;BME280;14717;46.924;15.474;2023-02-14T03:59:52;99762.47;;;-2.82;96.34
27202;BME280;14717;46.924;15.474;2023-02-14T04:02:26;99763.13;;;-2.80;96.08
27202;BME280;14717;46.924;15.474;2023-02-14T04:04:56;99759.44;;;-2.79;96.01
27202;BME280;14717;46.924;15.474;2023-02-14T04:07:23;99750.81;;;-2.82;96.77
27202;BME280;14717;46.924;15.474;2023-02-14T04:09:49;99761.47;;;-2.81;96.00
27202;BME280;14717;46.924;15.474;2023-02-14T04:12:15;99747.63;;;-2.70;95.48
27202;BME280;14717;46.924;15.474;2023-02-14T04:14:41;99750.88;;;-2.58;95.25
27202;BME280;14717;46.924;15.474;2023-02-14T04:17:07;99736.88;;;-2.54;94.12
27202;BME280;14717;46.924;15.474;2023-02-14T04:19:51;99738.19;;;-2.58;93.67
27202;BME280;14717;46.924;15.474;2023-02-14T04:22:17;99738.19;;;-2.58;93.12
27202;BME280;14717;46.924;15.474;2023-02-14T04:24:43;99726.53;;;-2.58;92.70
27202;BME280;14717;46.924;15.474;2023-02-14T04:27:08;99729.09;;;-2.57;92.15
27202;BME280;14717;46.924;15.474;2023-02-14T04:29:39;99731.63;;;-2.55;91.42
27202;BME280;14717;46.924;15.474;2023-02-14T04:32:09;99725.34;;;-2.64;91.11
27202;BME280;14717;46.924;15.474;2023-02-14T04:34:35;99733.91;;;-2.76;90.53
27202;BME280;14717;46.924;15.474;2023-02-14T04:37:01;99730.06;;;-2.74;90.62
27202;BME280;14717;46.924;15.474;2023-02-14T04:39:26;99713.50;;;-2.79;90.91
27202;BME280;14717;46.924;15.474;2023-02-14T04:41:52;99723.88;;;-2.99;91.32
27202;BME280;14717;46.924;15.474;2023-02-14T04:44:17;99716.75;;;-3.08;92.57
27202;BME280;14717;46.924;15.474;2023-02-14T04:46:43;99717.06;;;-3.11;93.02
27202;BME280;14717;46.924;15.474;2023-02-14T04:49:08;99711.31;;;-3.16;92.10
27202;BME280;14717;46.924;15.474;2023-02-14T04:51:33;99720.50;;;-3.01;91.47
27202;BME280;14717;46.924;15.474;2023-02-14T04:53:59;99703.13;;;-2.99;91.63
27202;BME280;14717;46.924;15.474;2023-02-14T04:56:24;99714.09;;;-2.93;91.40
27202;BME280;14717;46.924;15.474;2023-02-14T04:58:51;99714.09;;;-3.00;92.56
27202;BME280;14717;46.924;15.474;2023-02-14T05:01:16;99709.97;;;-3.12;92.90
27202;BME280;14717;46.924;15.474;2023-02-14T05:03:41;99719.47;;;-3.08;92.20
27202;BME280;14717;46.924;15.474;2023-02-14T05:06:06;99708.97;;;-3.11;92.18
27202;BME280;14717;46.924;15.474;2023-02-14T05:08:32;99710.53;;;-3.09;91.89
27202;BME280;14717;46.924;15.474;2023-02-14T05:10:57;99708.97;;;-3.11;91.82
27202;BME280;14717;46.924;15.474;2023-02-14T05:13:22;99691.94;;;-3.37;93.10
27202;BME280;14717;46.924;15.474;2023-02-14T05:15:48;99690.66;;;-3.33;93.30
27202;BME280;14717;46.924;15.474;2023-02-14T05:18:13;99691.16;;;-3.30;92.98
27202;BME280;14717;46.924;15.474;2023-02-14T05:20:38;99686.25;;;-3.34;94.04
27202;BME280;14717;46.924;15.474;2023-02-14T05:23:04;99688.88;;;-3.17;93.77
27202;BME280;14717;46.924;15.474;2023-02-14T05:25:30;99684.81;;;-3.13;93.14
27202;BME280;14717;46.924;15.474;2023-02-14T05:27:56;99696.09;;;-3.25;92.37
27202;BME280;14717;46.924;15.474;2023-02-14T05:30:22;99691.22;;;-3.22;92.27
27202;BME280;14717;46.924;15.474;2023-02-14T05:32:52;99697.13;;;-3.18;91.89
27202;BME280;14717;46.924;15.474;2023-02-14T05:35:17;99696.94;;;-3.25;91.58
27202;BME280;14717;46.924;15.474;2023-02-14T05:37:43;99696.59;;;-3.22;91.75
27202;BME280;14717;46.924;15.474;2023-02-14T05:40:09;99699.16;;;-3.20;92.22
27202;BME280;14717;46.924;15.474;2023-02-14T05:42:37;99690.34;;;-3.22;92.08
27202;BME280;14717;46.924;15.474;2023-02-14T05:45:03;99687.63;;;-3.30;91.87
27202;BME280;14717;46.924;15.474;2023-02-14T05:47:29;99696.94;;;-3.25;91.92
27202;BME280;14717;46.924;15.474;2023-02-14T05:49:54;99690.69;;;-3.25;91.55
27202;BME280;14717;46.924;15.474;2023-02-14T05:52:19;99690.50;;;-3.24;91.49
27202;BME280;14717;46.924;15.474;2023-02-14T05:54:45;99680.25;;;-3.20;91.97
27202;BME280;14717;46.924;15.474;2023-02-14T05:57:10;99683.25;;;-3.23;92.53
27202;BME280;14717;46.924;15.474;2023-02-14T05:59:35;99688.34;;;-3.20;91.51
27202;BME280;14717;46.924;15.474;2023-02-14T06:02:01;99690.38;;;-3.14;91.70
27202;BME280;14717;46.924;15.474;2023-02-14T06:04:26;99692.56;;;-3.18;90.68
27202;BME280;14717;46.924;15.474;2023-02-14T06:06:51;99693.75;;;-3.12;91.05
27202;BME280;14717;46.924;15.474;2023-02-14T06:09:17;99693.03;;;-3.22;90.11
27202;BME280;14717;46.924;15.474;2023-02-14T06:11:44;99702.81;;;-3.29;91.38
27202;BME280;14717;46.924;15.474;2023-02-14T06:14:09;99705.81;;;-3.32;91.75
27202;BME280;14717;46.924;15.474;2023-02-14T06:16:35;99700.41;;;-3.32;91.95
27202;BME280;14717;46.924;15.474;2023-02-14T06:19:00;99692.31;;;-3.32;92.29
27202;BME280;14717;46.924;15.474;2023-02-14T06:21:26;99690.97;;;-3.36;93.12
27202;BME280;14717;46.924;15.474;2023-02-14T06:23:51;99696.72;;;-3.31;92.61
27202;BME280;14717;46.924;15.474;2023-02-14T06:26:17;99699.63;;;-3.25;93.05
27202;BME280;14717;46.924;15.474;2023-02-14T06:28:42;99695.38;;;-3.35;92.64
27202;BME280;14717;46.924;15.474;2023-02-14T06:31:07;99700.78;;;-3.35;92.37
27202;BME280;14717;46.924;15.474;2023-02-14T06:33:33;99697.03;;;-3.34;92.79
27202;BME280;14717;46.924;15.474;2023-02-14T06:35:58;99700.41;;;-3.32;92.76
27202;BME280;14717;46.924;15.474;2023-02-14T06:38:24;99697.75;;;-3.24;92.95
27202;BME280;14717;46.924;15.474;2023-02-14T06:40:49;99711.00;;;-3.13;93.16
27202;BME280;14717;46.924;15.474;2023-02-14T06:43:14;99706.94;;;-3.09;92.60
27202;BME280;14717;46.924;15.474;2023-02-14T06:45:40;99706.44;;;-3.13;92.74
27202;BME280;14717;46.924;15.474;2023-02-14T06:48:08;99702.22;;;-3.07;93.11
27202;BME280;14717;46.924;15.474;2023-02-14T06:50:34;99704.78;;;-2.98;93.55
27202;BME280;14717;46.924;15.474;2023-02-14T06:52:59;99696.91;;;-2.84;93.06
27202;BME280;14717;46.924;15.474;2023-02-14T06:55:25;99699.97;;;-2.79;91.40
27202;BME280;14717;46.924;15.474;2023-02-14T06:57:50;99690.84;;;-2.70;91.29
27202;BME280;14717;46.924;15.474;2023-02-14T07:00:16;99696.09;;;-2.68;91.67
27202;BME280;14717;46.924;15.474;2023-02-14T07:02:42;99697.81;;;-2.67;92.72
27202;BME280;14717;46.924;15.474;2023-02-14T07:05:07;99694.78;;;-2.56;92.60
27202;BME280;14717;46.924;15.474;2023-02-14T07:07:33;99693.97;;;-2.49;94.13
27202;BME280;14717;46.924;15.474;2023-02-14T07:09:58;99684.66;;;-2.47;93.41
27202;BME280;14717;46.924;15.474;2023-02-14T07:12:24;99694.16;;;-2.35;94.19
27202;BME280;14717;46.924;15.474;2023-02-14T07:14:49;99690.25;;;-2.24;93.35
27202;BME280;14717;46.924;15.474;2023-02-14T07:17:14;99689.25;;;-2.15;92.97
27202;BME280;14717;46.924;15.474;2023-02-14T07:19:40;99689.25;;;-2.08;94.89
27202;BME280;14717;46.924;15.474;2023-02-14T07:22:05;99687.22;;;-1.98;95.74
27202;BME280;14717;46.924;15.474;2023-02-14T07:24:30;99684.34;;;-1.88;95.85
27202;BME280;14717;46.924;15.474;2023-02-14T07:26:56;99671.47;;;-1.70;97.27
27202;BME280;14717;46.924;15.474;2023-02-14T07:29:21;99667.03;;;-1.56;97.72
27202;BME280;14717;46.924;15.474;2023-02-14T07:31:46;99667.69;;;-1.46;97.02
27202;BME280;14717;46.924;15.474;2023-02-14T07:34:12;99662.56;;;-1.33;96.64
27202;BME280;14717;46.924;15.474;2023-02-14T07:36:37;99658.44;;;-1.21;96.87
27202;BME280;14717;46.924;15.474;2023-02-14T07:39:03;99658.19;;;-1.04;96.55
27202;BME280;14717;46.924;15.474;2023-02-14T07:41:29;99655.94;;;-0.92;95.78
27202;BME280;14717;46.924;15.474;2023-02-14T07:43:54;99655.19;;;-0.79;95.87
27202;BME280;14717;46.924;15.474;2023-02-14T07:46:19;99656.28;;;-0.65;96.05
27202;BME280;14717;46.924;15.474;2023-02-14T07:48:45;99654.19;;;-0.55;96.51
27202;BME280;14717;46.924;15.474;2023-02-14T07:51:10;99646.50;;;-0.44;97.40
27202;BME280;14717;46.924;15.474;2023-02-14T07:53:35;99650.81;;;-0.35;97.78
27202;BME280;14717;46.924;15.474;2023-02-14T07:56:01;99651.25;;;-0.24;98.13
27202;BME280;14717;46.924;15.474;2023-02-14T07:58:26;99646.72;;;-0.09;98.30
27202;BME280;14717;46.924;15.474;2023-02-14T08:00:51;99643.88;;;0.07;98.67
27202;BME280;14717;46.924;15.474;2023-02-14T08:03:17;99643.34;;;0.26;98.46
27202;BME280;14717;46.924;15.474;2023-02-14T08:05:43;99648.63;;;0.42;98.21
27202;BME280;14717;46.924;15.474;2023-02-14T08:08:08;99649.00;;;0.53;97.70
27202;BME280;14717;46.924;15.474;2023-02-14T08:10:34;99649.56;;;0.63;96.73
27202;BME280;14717;46.924;15.474;2023-02-14T08:12:59;99654.34;;;0.75;96.27
27202;BME280;14717;46.924;15.474;2023-02-14T08:15:32;99648.06;;;0.89;96.23
27202;BME280;14717;46.924;15.474;2023-02-14T08:18:38;99647.94;;;0.97;95.63
27202;BME280;14717;46.924;15.474;2023-02-14T08:21:06;99646.44;;;1.09;95.55
27202;BME280;14717;46.924;15.474;2023-02-14T08:23:32;99641.66;;;1.25;94.63
27202;BME280;14717;46.924;15.474;2023-02-14T08:25:57;99650.28;;;1.49;95.21
27202;BME280;14717;46.924;15.474;2023-02-14T08:28:24;99651.69;;;1.60;93.36
27202;BME280;14717;46.924;15.474;2023-02-14T08:30:49;99650.06;;;1.65;93.10
27202;BME280;14717;46.924;15.474;2023-02-14T08:33:15;99657.25;;;1.72;92.53
27202;BME280;14717;46.924;15.474;2023-02-14T08:35:40;99640.72;;;1.95;93.19
27202;BME280;14717;46.924;15.474;2023-02-14T08:38:06;99644.91;;;2.18;92.76
27202;BME280;14717;46.924;15.474;2023-02-14T08:40:32;99637.31;;;2.34;91.75
27202;BME280;14717;46.924;15.474;2023-02-14T08:42:57;99648.31;;;2.47;91.52
27202;BME280;14717;46.924;15.474;2023-02-14T08:45:23;99644.25;;;2.64;91.57
27202;BME280;14717;46.924;15.474;2023-02-14T08:47:48;99638.63;;;2.72;90.04
27202;BME280;14717;46.924;15.474;2023-02-14T08:50:16;99643.13;;;2.86;89.20
27202;BME280;14717;46.924;15.474;2023-02-14T08:52:43;99635.63;;;3.00;89.77
27202;BME280;14717;46.924;15.474;2023-02-14T08:55:09;99637.25;;;3.22;88.20
27202;BME280;14717;46.924;15.474;2023-02-14T08:57:35;99644.59;;;3.28;86.94
27202;BME280;14717;46.924;15.474;2023-02-14T09:00:02;99645.00;;;3.25;85.63
27202;BME280;14717;46.924;15.474;2023-02-14T09:02:28;99649.88;;;3.30;85.25
27202;BME280;14717;46.924;15.474;2023-02-14T09:04:53;99648.50;;;3.53;85.36
27202;BME280;14717;46.924;15.474;2023-02-14T09:07:19;99648.59;;;3.85;87.10
27202;BME280;14717;46.924;15.474;2023-02-14T09:09:44;99637.91;;;4.03;85.43
27202;BME280;14717;46.924;15.474;2023-02-14T09:12:10;99647.19;;;4.21;84.56
27202;BME280;14717;46.924;15.474;2023-02-14T09:14:41;99649.69;;;4.16;83.68
27202;BME280;14717;46.924;15.474;2023-02-14T09:17:11;99645.91;;;4.17;82.33
27202;BME280;14717;46.924;15.474;2023-02-14T09:19:37;99646.97;;;4.22;83.59
27202;BME280;14717;46.924;15.474;2023-02-14T09:22:04;99651.81;;;4.40;81.74
27202;BME280;14717;46.924;15.474;2023-02-14T09:24:31;99656.25;;;4.60;83.04
27202;BME280;14717;46.924;15.474;2023-02-14T09:26:57;99649.69;;;4.74;81.03
27202;BME280;14717;46.924;15.474;2023-02-14T09:29:26;99643.31;;;4.99;81.57
27202;BME280;14717;46.924;15.474;2023-02-14T09:31:53;99648.56;;;5.13;79.54
27202;BME280;14717;46.924;15.474;2023-02-14T09:34:19;99646.47;;;5.03;78.49
27202;BME280;14717;46.924;15.474;2023-02-14T09:36:44;99651.50;;;5.12;77.91
27202;BME280;14717;46.924;15.474;2023-02-14T09:39:09;99656.31;;;5.36;78.90
27202;BME280;14717;46.924;15.474;2023-02-14T09:42:02;99653.88;;;5.52;78.65
27202;BME280;14717;46.924;15.474;2023-02-14T09:45:11;99652.47;;;5.43;76.33
27202;BME280;14717;46.924;15.474;2023-02-14T09:52:57;99640.66;;;5.93;75.65
27202;BME280;14717;46.924;15.474;2023-02-14T09:55:30;99639.91;;;6.10;76.11
27202;BME280;14717;46.924;15.474;2023-02-14T09:58:06;99640.88;;;6.22;74.95
27202;BME280;14717;46.924;15.474;2023-02-14T10:00:43;99636.41;;;6.27;73.91
27202;BME280;14717;46.924;15.474;2023-02-14T10:03:31;99640.44;;;6.25;73.41
27202;BME280;14717;46.924;15.474;2023-02-14T10:11:21;99639.06;;;6.64;72.64
27202;BME280;14717;46.924;15.474;2023-02-14T10:16:22;99632.75;;;6.81;72.32
27202;BME280;14717;46.924;15.474;2023-02-14T10:21:33;99632.94;;;7.04;71.41
27202;BME280;14717;46.924;15.474;2023-02-14T10:24:34;99629.31;;;7.28;71.16
27202;BME280;14717;46.924;15.474;2023-02-14T10:27:28;99638.56;;;7.33;70.50
27202;BME280;14717;46.924;15.474;2023-02-14T10:29:49;99636.56;;;7.40;70.93
27202;BME280;14717;46.924;15.474;2023-02-14T10:32:20;99634.56;;;7.47;69.21
27202;BME280;14717;46.924;15.474;2023-02-14T10:34:50;99629.13;;;7.59;69.59
27202;BME280;14717;46.924;15.474;2023-02-14T10:46:01;99610.13;;;7.57;68.66
27202;BME280;14717;46.924;15.474;2023-02-14T10:51:30;99607.16;;;7.88;69.05
27202;BME280;14717;46.924;15.474;2023-02-14T10:54:26;99594.97;;;8.24;68.64
27202;BME280;14717;46.924;15.474;2023-02-14T10:57:10;99600.03;;;8.27;66.87
27202;BME280;14717;46.924;15.474;2023-02-14T10:59:42;99597.03;;;8.29;66.39
27202;BME280;14717;46.924;15.474;2023-02-14T11:02:12;99592.03;;;8.37;66.39
27202;BME280;14717;46.924;15.474;2023-02-14T11:04:39;99590.84;;;8.45;66.99
27202;BME280;14717;46.924;15.474;2023-02-14T11:07:17;99592.41;;;8.52;67.02
27202;BME280;14717;46.924;15.474;2023-02-14T11:09:43;99585.22;;;8.74;65.94
27202;BME280;14717;46.924;15.474;2023-02-14T11:12:09;99574.81;;;8.76;65.51
27202;BME280;14717;46.924;15.474;2023-02-14T11:14:37;99573.16;;;8.86;65.25
27202;BME280;14717;46.924;15.474;2023-02-14T11:17:26;99573.63;;;8.83;65.34
27202;BME280;14717;46.924;15.474;2023-02-14T11:20:01;99580.72;;;8.91;65.17
27202;BME280;14717;46.924;15.474;2023-02-14T11:22:31;99577.31;;;9.11;64.65
27202;BME280;14717;46.924;15.474;2023-02-14T11:25:17;99573.84;;;9.16;63.99
27202;BME280;14717;46.924;15.474;2023-02-14T11:27:45;99574.88;;;9.26;63.38
27202;BME280;14717;46.924;15.474;2023-02-14T11:30:23;99574.31;;;9.24;63.15
27202;BME280;14717;46.924;15.474;2023-02-14T11:32:50;99566.50;;;9.21;63.47
27202;BME280;14717;46.924;15.474;2023-02-14T11:35:21;99559.81;;;9.17;63.82
27202;BME280;14717;46.924;15.474;2023-02-14T11:37:52;99563.59;;;9.39;64.46
27202;BME280;14717;46.924;15.474;2023-02-14T11:40:38;99551.81;;;9.55;63.41
27202;BME280;14717;46.924;15.474;2023-02-14T11:45:37;99554.50;;;9.38;63.42
27202;BME280;14717;46.924;15.474;2023-02-14T11:50:53;99553.72;;;9.43;63.40
27202;BME280;14717;46.924;15.474;2023-02-14T11:53:22;99543.53;;;9.55;63.24
27202;BME280;14717;46.924;15.474;2023-02-14T11:55:53;99538.84;;;9.83;63.54
27202;BME280;14717;46.924;15.474;2023-02-14T11:58:34;99541.41;;;9.73;62.16
27202;BME280;14717;46.924;15.474;2023-02-14T12:01:02;99535.78;;;9.68;62.67
27202;BME280;14717;46.924;15.474;2023-02-14T12:03:42;99531.13;;;9.96;62.47
27202;BME280;14717;46.924;15.474;2023-02-14T12:06:09;99523.34;;;9.93;61.77
27202;BME280;14717;46.924;15.474;2023-02-14T12:08:35;99532.94;;;9.91;61.29
27202;BME280;14717;46.924;15.474;2023-02-14T12:11:22;99529.88;;;10.20;61.63
27202;BME280;14717;46.924;15.474;2023-02-14T12:13:55;99528.59;;;10.39;60.34
27202;BME280;14717;46.924;15.474;2023-02-14T12:16:32;99522.88;;;10.29;60.29
27202;BME280;14717;46.924;15.474;2023-02-14T12:19:02;99528.56;;;10.06;60.61
27202;BME280;14717;46.924;15.474;2023-02-14T12:21:50;99524.69;;;10.23;59.95
27202;BME280;14717;46.924;15.474;2023-02-14T12:24:27;99522.47;;;10.20;59.87
27202;BME280;14717;46.924;15.474;2023-02-14T12:27:18;99516.78;;;10.27;59.57
27202;BME280;14717;46.924;15.474;2023-02-14T12:32:48;99513.25;;;10.48;59.14
27202;BME280;14717;46.924;15.474;2023-02-14T12:43:19;99501.59;;;10.13;59.42
27202;BME280;14717;46.924;15.474;2023-02-14T12:45:54;99489.66;;;10.08;60.50
27202;BME280;14717;46.924;15.474;2023-02-14T12:48:41;99489.81;;;10.18;59.29
27202;BME280;14717;46.924;15.474;2023-02-14T12:59:22;99481.28;;;10.52;58.56
27202;BME280;14717;46.924;15.474;2023-02-14T13:07:45;99471.00;;;11.06;57.34
27202;BME280;14717;46.924;15.474;2023-02-14T13:13:22;99461.59;;;11.07;56.65
27202;BME280;14717;46.924;15.474;2023-02-14T13:21:02;99465.78;;;10.51;57.69
27202;BME280;14717;46.924;15.474;2023-02-14T13:26:07;99461.78;;;10.25;59.07
27202;BME280;14717;46.924;15.474;2023-02-14T13:28:36;99454.00;;;10.06;58.77
27202;BME280;14717;46.924;15.474;2023-02-14T13:31:03;99456.41;;;10.35;58.48
27202;BME280;14717;46.924;15.474;2023-02-14T13:33:36;99455.50;;;10.67;57.76
27202;BME280;14717;46.924;15.474;2023-02-14T13:36:08;99454.91;;;10.82;57.01
27202;BME280;14717;46.924;15.474;2023-02-14T13:38:42;99457.72;;;10.65;56.66
27202;BME280;14717;46.924;15.474;2023-02-14T13:41:09;99455.59;;;10.72;57.33
27202;BME280;14717;46.924;15.474;2023-02-14T13:46:18;99447.50;;;11.30;55.98
27202;BME280;14717;46.924;15.474;2023-02-14T13:49:21;99446.69;;;11.50;55.70
27202;BME280;14717;46.924;15.474;2023-02-14T13:51:50;99448.19;;;11.42;54.77
27202;BME280;14717;46.924;15.474;2023-02-14T13:56:59;99447.44;;;11.25;54.64
27202;BME280;14717;46.924;15.474;2023-02-14T13:59:32;99452.97;;;11.25;55.04
27202;BME280;14717;46.924;15.474;2023-02-14T14:02:28;99439.47;;;11.49;54.76
27202;BME280;14717;46.924;15.474;2023-02-14T14:04:54;99436.25;;;11.57;54.99
27202;BME280;14717;46.924;15.474;2023-02-14T14:07:22;99440.91;;;11.31;54.80
27202;BME280;14717;46.924;15.474;2023-02-14T14:15:13;99444.13;;;11.23;55.77
27202;BME280;14717;46.924;15.474;2023-02-14T14:18:28;99438.19;;;11.36;55.01
27202;BME280;14717;46.924;15.474;2023-02-14T14:20:39;99455.41;;;11.43;54.39
27202;BME280;14717;46.924;15.474;2023-02-14T14:23:51;99439.63;;;11.43;54.29
27202;BME280;14717;46.924;15.474;2023-02-14T14:25:51;99446.56;;;11.19;55.49
27202;BME280;14717;46.924;15.474;2023-02-14T14:28:21;99444.00;;;11.13;54.89
27202;BME280;14717;46.924;15.474;2023-02-14T14:30:48;99454.47;;;11.11;55.10
27202;BME280;14717;46.924;15.474;2023-02-14T14:33:24;99448.06;;;11.32;55.43
27202;BME280;14717;46.924;15.474;2023-02-14T14:35:57;99445.88;;;11.34;55.04
27202;BME280;14717;46.924;15.474;2023-02-14T14:38:24;99447.91;;;11.17;54.76
27202;BME280;14717;46.924;15.474;2023-02-14T14:40:50;99445.19;;;11.22;55.19
27202;BME280;14717;46.924;15.474;2023-02-14T14:43:31;99444.13;;;11.23;55.26
27202;BME280;14717;46.924;15.474;2023-02-14T14:45:59;99446.94;;;11.28;54.66
27202;BME280;14717;46.924;15.474;2023-02-14T14:48:37;99452.47;;;11.28;55.84
27202;BME280;14717;46.924;15.474;2023-02-14T14:51:06;99439.66;;;11.22;56.05
27202;BME280;14717;46.924;15.474;2023-02-14T14:53:46;99446.19;;;11.11;55.91
27202;BME280;14717;46.924;15.474;2023-02-14T14:56:18;99447.53;;;11.08;55.44
27202;BME280;14717;46.924;15.474;2023-02-14T14:58:45;99444.88;;;10.97;55.40
27202;BME280;14717;46.924;15.474;2023-02-14T15:01:26;99439.91;;;10.99;56.05
27202;BME280;14717;46.924;15.474;2023-02-14T15:03:51;99447.81;;;10.91;56.41
27202;BME280;14717;46.924;15.474;2023-02-14T15:06:21;99447.78;;;11.07;56.46